Time;durP1;ratioP1;P1;durP2;ratioP2;P2;SDS_P1;SDS_P2;PMS_P1;PMS_P2;Temp;Humidity;BMP_temperature;BMP_pressure;BME280_temperature;BME280_humidity;BME280_pressure;Samples;Min_cycle;Max_cycle;Signal;HPM_P1;HPM_P2
2023/08/31 00:00:51;;;;;;;38.60;36.60;;;14.50;99.90;;;;;;5072506;28;20501;-73
2023/08/31 00:03:18;;;;;;;39.23;37.03;;;14.50;99.90;;;;;;5072488;28;20450;-72
2023/08/31 00:05:46;;;;;;;38.07;36.07;;;14.60;99.90;;;;;;5072372;28;21004;-72
2023/08/31 00:08:13;;;;;;;38.53;36.53;;;14.60;99.90;;;;;;5072429;28;20443;-72
2023/08/31 00:10:40;;;;;;;38.13;36.03;;;14.70;99.90;;;;;;5072120;28;20791;-73
2023/08/31 00:13:07;;;;;;;36.10;34.10;;;14.60;99.90;;;;;;5072294;28;20447;-73
2023/08/31 00:15:35;;;;;;;36.63;34.60;;;14.60;99.90;;;;;;5072114;28;20862;-73
2023/08/31 00:18:03;;;;;;;36.13;33.93;;;14.60;99.90;;;;;;5071972;28;20463;-73
2023/08/31 00:20:30;;;;;;;38.77;36.67;;;14.60;99.90;;;;;;5071828;28;20551;-73
2023/08/31 00:22:58;;;;;;;37.20;35.20;;;14.60;99.90;;;;;;5071946;28;20482;-74
2023/08/31 00:25:24;;;;;;;37.53;35.43;;;14.60;99.90;;;;;;5071692;28;20482;-74
2023/08/31 00:27:53;;;;;;;36.60;34.50;;;14.50;99.90;;;;;;5071919;28;20477;-74
2023/08/31 00:30:20;;;;;;;37.13;35.20;;;14.50;99.90;;;;;;5071709;28;20508;-75
2023/08/31 00:32:48;;;;;;;38.03;36.00;;;14.40;99.90;;;;;;5071940;28;20458;-75
2023/08/31 00:35:15;;;;;;;36.97;35.07;;;14.40;99.90;;;;;;5071577;28;20458;-74
2023/08/31 00:37:41;;;;;;;39.10;36.57;;;14.30;99.90;;;;;;5071680;28;20446;-75
2023/08/31 00:40:09;;;;;;;38.20;36.20;;;14.30;99.90;;;;;;5071735;28;20436;-75
2023/08/31 00:42:37;;;;;;;38.53;36.63;;;14.30;99.90;;;;;;5071630;28;20451;-72
2023/08/31 00:45:05;;;;;;;36.77;34.77;;;14.30;99.90;;;;;;5071549;28;20483;-72
2023/08/31 00:47:32;;;;;;;37.13;34.97;;;14.30;99.90;;;;;;5071562;28;20964;-72
2023/08/31 00:50:01;;;;;;;34.17;32.37;;;14.30;99.90;;;;;;5071443;28;20501;-72
2023/08/31 00:52:28;;;;;;;33.50;31.70;;;14.30;99.90;;;;;;5071401;28;20455;-72
2023/08/31 00:54:55;;;;;;;32.17;30.47;;;14.20;99.90;;;;;;5071762;28;20455;-72
2023/08/31 00:57:22;;;;;;;30.50;28.73;;;14.10;99.90;;;;;;5071387;28;20446;-72
2023/08/31 00:59:49;;;;;;;31.30;29.57;;;14.00;99.90;;;;;;5071280;28;20451;-72
2023/08/31 01:02:20;;;;;;;30.37;28.57;;;13.90;99.90;;;;;;5071198;28;20913;-72
2023/08/31 01:04:51;;;;;;;31.57;29.67;;;13.90;99.90;;;;;;5070551;28;20486;-72
2023/08/31 01:07:30;;;;;;;29.23;27.83;;;13.90;99.90;;;;;;5071228;28;20475;-72
2023/08/31 01:10:01;;;;;;;31.50;29.80;;;13.90;99.90;;;;;;5071289;28;20843;-72
2023/08/31 01:12:36;;;;;;;31.33;29.73;;;13.90;99.90;;;;;;5071401;28;20441;-72
2023/08/31 01:15:07;;;;;;;28.70;27.30;;;13.80;99.90;;;;;;5070940;28;20538;-72
2023/08/31 01:17:38;;;;;;;28.23;26.70;;;13.80;99.90;;;;;;5070989;28;20474;-73
2023/08/31 01:20:08;;;;;;;30.20;28.50;;;13.80;99.90;;;;;;5070853;28;20454;-73
2023/08/31 01:22:41;;;;;;;30.70;28.87;;;13.70;99.90;;;;;;5070842;28;20451;-73
2023/08/31 01:25:10;;;;;;;28.97;27.30;;;13.60;99.90;;;;;;5070918;28;20556;-73
2023/08/31 01:27:38;;;;;;;27.30;25.87;;;13.60;99.90;;;;;;5070788;28;20439;-73
2023/08/31 01:30:06;;;;;;;28.57;26.70;;;13.50;99.90;;;;;;5070545;28;20443;-73
2023/08/31 01:32:33;;;;;;;28.60;27.07;;;13.50;99.90;;;;;;5070771;28;20454;-73
2023/08/31 01:35:02;;;;;;;31.17;29.07;;;13.40;99.90;;;;;;5070506;28;20443;-73
2023/08/31 01:37:36;;;;;;;26.50;25.20;;;13.30;99.90;;;;;;5070502;28;20921;-73
2023/08/31 01:40:07;;;;;;;28.43;26.40;;;13.40;99.90;;;;;;5070706;28;20447;-73
2023/08/31 01:42:36;;;;;;;28.27;26.60;;;13.40;99.90;;;;;;5070479;28;20439;-73
2023/08/31 01:45:04;;;;;;;26.10;24.80;;;13.40;99.90;;;;;;5070441;28;20878;-72
2023/08/31 01:47:32;;;;;;;25.37;24.00;;;13.50;99.90;;;;;;5070432;28;20921;-72
2023/08/31 01:49:59;;;;;;;26.00;24.60;;;13.50;99.90;;;;;;5070362;28;20443;-72
2023/08/31 01:52:26;;;;;;;26.53;25.23;;;13.60;99.90;;;;;;5070018;28;20478;-72
2023/08/31 01:54:52;;;;;;;27.47;25.40;;;13.60;99.90;;;;;;5070292;28;20439;-72
2023/08/31 01:57:19;;;;;;;26.10;24.50;;;13.50;99.90;;;;;;5070230;28;20458;-71
2023/08/31 01:59:47;;;;;;;25.20;24.00;;;13.60;99.90;;;;;;5070041;28;20447;-72
2023/08/31 02:02:14;;;;;;;24.30;23.20;;;13.70;99.90;;;;;;5070043;28;20454;-72
2023/08/31 02:04:41;;;;;;;23.37;22.37;;;13.80;99.90;;;;;;5069814;28;20550;-71
2023/08/31 02:07:07;;;;;;;22.60;21.60;;;13.90;99.90;;;;;;5069916;28;20446;-71
2023/08/31 02:09:34;;;;;;;21.00;20.10;;;14.00;99.90;;;;;;5069865;28;20470;-72
2023/08/31 02:12:01;;;;;;;20.83;19.93;;;14.10;99.90;;;;;;5070063;28;20863;-72
2023/08/31 02:14:27;;;;;;;19.90;18.90;;;14.20;99.90;;;;;;5069729;28;20448;-72
2023/08/31 02:16:55;;;;;;;18.97;18.17;;;14.30;99.90;;;;;;5070361;28;20456;-72
2023/08/31 02:19:22;;;;;;;19.00;17.60;;;14.30;99.90;;;;;;5071069;28;20439;-71
2023/08/31 02:21:49;;;;;;;17.83;16.93;;;14.30;99.90;;;;;;5071002;28;20443;-72
2023/08/31 02:24:15;;;;;;;18.13;17.20;;;14.40;99.90;;;;;;5071182;28;20451;-72
2023/08/31 02:26:42;;;;;;;18.10;17.30;;;14.40;99.90;;;;;;5070958;28;20495;-72
2023/08/31 02:29:09;;;;;;;19.23;18.30;;;14.40;99.90;;;;;;5071022;28;20447;-72
2023/08/31 02:31:37;;;;;;;17.40;16.70;;;14.40;99.90;;;;;;5070965;28;20447;-72
2023/08/31 02:34:05;;;;;;;16.93;16.33;;;14.50;99.90;;;;;;5070993;28;20862;-73
2023/08/31 02:36:32;;;;;;;17.90;16.90;;;14.50;99.90;;;;;;5070868;28;20688;-73
2023/08/31 02:38:58;;;;;;;17.23;16.53;;;14.60;99.90;;;;;;5070904;28;20443;-73
2023/08/31 02:41:25;;;;;;;17.13;16.43;;;14.60;99.90;;;;;;5070746;28;20458;-72
2023/08/31 02:43:52;;;;;;;17.70;17.00;;;14.60;99.90;;;;;;5070821;28;20458;-73
2023/08/31 02:46:19;;;;;;;17.40;16.70;;;14.70;99.90;;;;;;5070740;28;20586;-72
2023/08/31 02:48:45;;;;;;;17.33;16.50;;;14.70;99.90;;;;;;5070790;28;20473;-73
2023/08/31 02:51:13;;;;;;;18.00;17.20;;;14.70;99.90;;;;;;5070742;28;20790;-73
2023/08/31 02:53:40;;;;;;;16.77;16.00;;;14.70;99.90;;;;;;5070526;28;20477;-72
2023/08/31 02:56:07;;;;;;;17.53;16.40;;;14.80;99.90;;;;;;5070730;28;20451;-73
2023/08/31 02:58:34;;;;;;;17.80;17.10;;;14.80;99.90;;;;;;5070620;28;20443;-73
2023/08/31 03:01:11;;;;;;;17.83;17.03;;;14.80;99.90;;;;;;5070657;28;20889;-72
2023/08/31 03:03:38;;;;;;;18.03;17.33;;;14.80;99.90;;;;;;5070537;28;20487;-73
2023/08/31 03:06:06;;;;;;;16.37;15.57;;;14.80;99.90;;;;;;5070507;28;20477;-73
2023/08/31 03:08:34;;;;;;;16.37;15.67;;;14.80;99.90;;;;;;5070599;28;20466;-73
2023/08/31 03:11:01;;;;;;;16.83;16.23;;;14.80;99.90;;;;;;5070569;28;20443;-73
2023/08/31 03:13:28;;;;;;;16.33;15.53;;;14.80;99.90;;;;;;5070492;28;20834;-73
2023/08/31 03:15:56;;;;;;;17.17;16.47;;;14.80;99.90;;;;;;5070363;28;20435;-75
2023/08/31 03:18:23;;;;;;;16.80;16.10;;;14.80;99.90;;;;;;5070539;28;20467;-75
2023/08/31 03:20:50;;;;;;;16.60;15.90;;;14.70;99.90;;;;;;5070648;28;20454;-76
2023/08/31 03:23:17;;;;;;;19.03;17.90;;;14.60;99.90;;;;;;5070492;28;20470;-75
2023/08/31 03:25:45;;;;;;;17.37;16.57;;;14.60;99.90;;;;;;5070316;28;20490;-74
2023/08/31 03:28:11;;;;;;;17.50;16.80;;;14.60;99.90;;;;;;5074095;28;20443;-75
2023/08/31 03:30:38;;;;;;;16.93;16.23;;;14.60;99.90;;;;;;5074524;28;20932;-75
2023/08/31 03:33:05;;;;;;;18.00;17.10;;;14.40;99.90;;;;;;5074495;28;20466;-75
2023/08/31 03:35:33;;;;;;;17.83;17.13;;;14.40;99.90;;;;;;5074279;28;20530;-75
2023/08/31 03:38:00;;;;;;;17.10;16.30;;;14.40;99.90;;;;;;5083525;28;20465;-75
2023/08/31 03:40:27;;;;;;;16.50;15.70;;;14.30;99.90;;;;;;5080542;28;20457;-75
2023/08/31 03:42:55;;;;;;;18.40;17.53;;;14.30;99.90;;;;;;5087480;28;21141;-75
2023/08/31 03:45:22;;;;;;;18.90;17.83;;;14.20;99.90;;;;;;5082556;28;20451;-75
2023/08/31 03:47:48;;;;;;;17.90;17.10;;;14.20;99.90;;;;;;5082976;28;20458;-75
2023/08/31 03:50:15;;;;;;;17.47;16.77;;;14.20;99.90;;;;;;5085110;28;20454;-76
2023/08/31 03:52:41;;;;;;;16.80;16.10;;;14.20;99.90;;;;;;5078255;28;20490;-75
2023/08/31 03:55:08;;;;;;;17.80;17.00;;;14.10;99.90;;;;;;5084677;28;20473;-74
2023/08/31 03:57:35;;;;;;;19.20;18.30;;;14.20;99.90;;;;;;5073963;28;20446;-74
2023/08/31 04:00:08;;;;;;;16.90;16.17;;;14.20;99.90;;;;;;5073637;28;20443;-74
2023/08/31 04:02:35;;;;;;;18.03;17.20;;;14.20;99.90;;;;;;5073641;28;20955;-74
2023/08/31 04:05:05;;;;;;;18.10;17.30;;;14.30;99.90;;;;;;5073621;28;20722;-74
2023/08/31 04:07:32;;;;;;;17.50;16.60;;;14.30;99.90;;;;;;5073562;28;20487;-74
2023/08/31 04:09:58;;;;;;;17.00;16.20;;;14.30;99.90;;;;;;5074161;28;20443;-76
2023/08/31 04:12:25;;;;;;;17.70;16.57;;;14.30;99.90;;;;;;5073496;28;20447;-76
2023/08/31 04:14:52;;;;;;;19.20;18.27;;;14.30;99.90;;;;;;5073574;28;20447;-76
2023/08/31 04:17:20;;;;;;;18.63;17.73;;;14.30;99.90;;;;;;5073559;28;20470;-76
2023/08/31 04:19:46;;;;;;;18.67;17.77;;;14.30;99.90;;;;;;5073444;28;20451;-76
2023/08/31 04:22:13;;;;;;;18.00;17.00;;;14.30;99.90;;;;;;5073447;28;20454;-75
2023/08/31 04:24:40;;;;;;;18.63;17.70;;;14.30;99.90;;;;;;5073399;28;20451;-74
2023/08/31 04:27:08;;;;;;;18.43;17.63;;;14.20;99.90;;;;;;5073065;28;20561;-74
2023/08/31 04:29:34;;;;;;;18.83;17.97;;;14.10;99.90;;;;;;5073413;28;20542;-75
2023/08/31 04:32:01;;;;;;;19.37;18.27;;;14.00;99.90;;;;;;5073344;28;20443;-75
2023/08/31 04:34:29;;;;;;;19.80;18.90;;;14.00;99.90;;;;;;5073242;28;20450;-74
2023/08/31 04:36:56;;;;;;;20.67;19.13;;;13.90;99.90;;;;;;5073175;28;20444;-74
2023/08/31 04:39:23;;;;;;;18.20;17.50;;;13.90;99.90;;;;;;5072182;28;20447;-73
2023/08/31 04:41:49;;;;;;;17.80;17.10;;;13.80;99.90;;;;;;5073130;28;20470;-73
2023/08/31 04:44:17;;;;;;;19.00;18.10;;;13.80;99.90;;;;;;5077118;28;20466;-74
2023/08/31 04:46:43;;;;;;;19.30;18.50;;;13.70;99.90;;;;;;5083840;28;20485;-74
2023/08/31 04:49:10;;;;;;;19.77;18.73;;;13.70;99.90;;;;;;5084492;28;20462;-74
2023/08/31 04:51:39;;;;;;;20.00;18.90;;;13.70;99.90;;;;;;5081532;28;20455;-74
2023/08/31 04:54:07;;;;;;;19.00;18.10;;;13.70;99.90;;;;;;5083883;28;20490;-74
2023/08/31 04:56:34;;;;;;;19.07;18.10;;;13.80;99.90;;;;;;5079193;28;20458;-74
2023/08/31 04:59:02;;;;;;;19.80;18.77;;;13.70;99.90;;;;;;5077125;28;20455;-74
2023/08/31 05:01:29;;;;;;;19.60;18.60;;;13.80;99.90;;;;;;5072509;28;20458;-74
2023/08/31 05:03:56;;;;;;;18.77;17.83;;;13.70;99.90;;;;;;5083634;28;20447;-74
2023/08/31 05:06:22;;;;;;;17.87;17.07;;;13.80;99.90;;;;;;5078255;28;20737;-74
2023/08/31 05:08:51;;;;;;;18.37;17.60;;;13.80;99.90;;;;;;5075069;28;20454;-74
2023/08/31 05:11:17;;;;;;;18.37;17.57;;;13.90;99.90;;;;;;5079352;28;20459;-74
2023/08/31 05:13:44;;;;;;;20.10;19.00;;;13.90;99.90;;;;;;5083078;28;20447;-74
2023/08/31 05:16:11;;;;;;;19.97;17.90;;;13.90;99.90;;;;;;5083637;28;20477;-73
2023/08/31 05:18:38;;;;;;;19.30;18.30;;;14.00;99.90;;;;;;5083436;28;20477;-75
2023/08/31 05:21:05;;;;;;;19.33;18.10;;;14.00;99.90;;;;;;5080009;28;20878;-76
2023/08/31 05:23:32;;;;;;;19.20;18.40;;;14.10;99.90;;;;;;5078630;28;20466;-74
2023/08/31 05:26:01;;;;;;;19.20;18.23;;;14.20;99.90;;;;;;5076997;28;20521;-74
2023/08/31 05:28:28;;;;;;;17.77;16.87;;;14.30;99.90;;;;;;5091499;28;20447;-74
2023/08/31 05:30:57;;;;;;;18.20;17.30;;;14.30;99.90;;;;;;5083027;28;20454;-74
2023/08/31 05:33:25;;;;;;;18.60;17.70;;;14.40;99.90;;;;;;5072116;28;20542;-74
2023/08/31 05:35:52;;;;;;;18.80;17.87;;;14.50;99.90;;;;;;5075923;28;20536;-73
2023/08/31 05:38:18;;;;;;;18.17;17.17;;;14.60;99.90;;;;;;5079015;28;20447;-72
2023/08/31 05:40:46;;;;;;;17.17;16.47;;;14.70;99.90;;;;;;5081032;28;20451;-73
2023/08/31 05:43:14;;;;;;;18.67;17.67;;;14.70;99.90;;;;;;5072093;28;20482;-73
2023/08/31 05:45:41;;;;;;;17.43;16.73;;;14.80;99.90;;;;;;5072037;28;20482;-72
2023/08/31 05:48:08;;;;;;;17.90;17.10;;;14.80;99.90;;;;;;5071897;28;20505;-73
2023/08/31 05:50:36;;;;;;;18.50;17.53;;;14.80;99.90;;;;;;5071875;28;20451;-73
2023/08/31 05:53:03;;;;;;;17.43;16.73;;;14.80;99.90;;;;;;5071487;28;20992;-75
2023/08/31 05:55:30;;;;;;;18.17;17.03;;;14.90;99.90;;;;;;5072037;28;20454;-74
2023/08/31 05:57:56;;;;;;;17.67;16.60;;;15.00;99.90;;;;;;5071889;28;20452;-75
2023/08/31 06:00:24;;;;;;;17.93;17.00;;;15.10;99.90;;;;;;5072200;28;20451;-73
2023/08/31 06:02:51;;;;;;;16.50;15.80;;;15.20;99.90;;;;;;5071667;28;20818;-75
2023/08/31 06:05:18;;;;;;;18.17;17.37;;;15.20;99.90;;;;;;5071541;28;20448;-75
2023/08/31 06:07:45;;;;;;;17.20;16.50;;;15.30;99.90;;;;;;5071444;28;20483;-75
2023/08/31 06:10:13;;;;;;;17.40;16.53;;;15.30;99.90;;;;;;5071655;28;20439;-76
2023/08/31 06:12:39;;;;;;;16.87;15.67;;;15.40;99.90;;;;;;5071653;28;20451;-76
2023/08/31 06:15:07;;;;;;;17.23;16.33;;;15.60;99.90;;;;;;5071428;28;20451;-76
2023/08/31 06:17:35;;;;;;;17.10;16.20;;;15.80;99.90;;;;;;5071414;28;20490;-81
2023/08/31 06:20:05;;;;;;;16.63;15.93;;;15.90;99.90;;;;;;5071592;28;20447;-79
2023/08/31 06:22:31;;;;;;;16.70;15.80;;;15.90;99.90;;;;;;5072449;28;20454;-81
2023/08/31 06:24:58;;;;;;;15.73;15.13;;;16.00;99.90;;;;;;5077356;28;20861;-80
2023/08/31 06:27:25;;;;;;;16.10;15.50;;;16.20;99.90;;;;;;5081113;28;20899;-81
2023/08/31 06:29:51;;;;;;;16.13;15.43;;;16.50;99.90;;;;;;5080745;28;20450;-80
2023/08/31 06:32:18;;;;;;;15.80;15.10;;;16.70;99.90;;;;;;5084016;28;20454;-80
2023/08/31 06:34:46;;;;;;;17.50;16.67;;;16.60;99.90;;;;;;5073288;28;20490;-80
2023/08/31 06:37:13;;;;;;;17.97;17.00;;;16.50;99.90;;;;;;5077605;28;20458;-79
2023/08/31 06:39:40;;;;;;;16.90;16.03;;;16.40;99.90;;;;;;5079458;28;20446;-79
2023/08/31 06:42:07;;;;;;;16.40;15.60;;;16.30;99.90;;;;;;5079286;28;20542;-79
2023/08/31 06:44:34;;;;;;;16.83;16.03;;;16.30;99.90;;;;;;5082127;28;20811;-79
2023/08/31 06:47:01;;;;;;;16.47;15.77;;;16.40;99.90;;;;;;5075390;28;20483;-79
2023/08/31 06:49:28;;;;;;;17.93;16.70;;;16.50;99.90;;;;;;5077856;28;20828;-80
2023/08/31 06:51:56;;;;;;;16.00;15.10;;;16.50;99.90;;;;;;5077806;28;20476;-80
2023/08/31 06:54:22;;;;;;;16.70;15.70;;;16.70;99.90;;;;;;5079181;28;20487;-79
2023/08/31 06:56:49;;;;;;;15.93;15.10;;;16.60;99.90;;;;;;5077316;28;20450;-78
2023/08/31 06:59:16;;;;;;;16.50;15.47;;;16.70;99.90;;;;;;5079013;28;20469;-78
2023/08/31 07:01:42;;;;;;;15.60;14.60;;;16.80;99.90;;;;;;5075804;28;20466;-79
2023/08/31 07:04:09;;;;;;;15.13;14.13;;;16.80;99.90;;;;;;5082337;28;20457;-79
2023/08/31 07:06:36;;;;;;;16.57;15.57;;;17.10;99.90;;;;;;5073097;28;20483;-77
2023/08/31 07:09:06;;;;;;;16.60;15.40;;;17.70;99.90;;;;;;5081676;28;20458;-80
2023/08/31 07:11:32;;;;;;;15.63;13.47;;;18.60;99.90;;;;;;5081624;28;20453;-79
2023/08/31 07:13:59;;;;;;;16.17;15.03;;;19.30;99.90;;;;;;5081893;28;20447;-78
2023/08/31 07:16:26;;;;;;;15.60;14.70;;;19.60;99.90;;;;;;5079639;28;20535;-79
2023/08/31 07:18:53;;;;;;;14.27;13.67;;;19.80;99.90;;;;;;5072465;28;20820;-78
2023/08/31 07:21:19;;;;;;;14.37;13.40;;;19.70;99.90;;;;;;5070733;28;20450;-78
2023/08/31 07:23:46;;;;;;;15.23;14.07;;;20.10;99.90;;;;;;5084527;28;20478;-77
2023/08/31 07:26:15;;;;;;;14.70;13.63;;;20.20;99.90;;;;;;5090593;28;20449;-78
2023/08/31 07:28:42;;;;;;;13.23;12.73;;;20.30;99.90;;;;;;5090754;28;20920;-78
2023/08/31 07:31:09;;;;;;;13.93;13.23;;;20.40;99.90;;;;;;5090727;28;20438;-77
2023/08/31 07:33:36;;;;;;;13.97;13.30;;;20.10;99.90;;;;;;5090491;28;20438;-78
2023/08/31 07:36:04;;;;;;;14.80;13.70;;;20.20;99.90;;;;;;5089992;28;20461;-76
2023/08/31 07:38:31;;;;;;;12.20;11.70;;;20.10;99.90;;;;;;5076485;28;20450;-76
2023/08/31 07:40:58;;;;;;;13.30;12.50;;;20.20;99.90;;;;;;5078224;28;20928;-76
2023/08/31 07:43:26;;;;;;;14.57;13.83;;;20.10;99.90;;;;;;5079063;28;20459;-77
2023/08/31 07:45:54;;;;;;;13.97;13.17;;;20.10;99.90;;;;;;5076922;28;20522;-76
2023/08/31 07:48:20;;;;;;;13.00;12.13;;;19.80;99.90;;;;;;5075004;28;20487;-76
2023/08/31 07:50:48;;;;;;;11.97;11.37;;;19.50;99.90;;;;;;5079020;28;20948;-76
2023/08/31 07:53:17;;;;;;;13.13;12.53;;;20.00;99.90;;;;;;5078594;28;20501;-75
2023/08/31 07:55:52;;;;;;;13.10;12.50;;;21.10;99.90;;;;;;5080466;28;20837;-76
2023/08/31 07:58:19;;;;;;;14.03;13.33;;;21.90;99.10;;;;;;5083463;28;20510;-75
2023/08/31 08:00:47;;;;;;;13.20;12.50;;;22.50;94.50;;;;;;5078779;28;20447;-76
2023/08/31 08:03:13;;;;;;;12.70;12.10;;;23.60;93.70;;;;;;5070212;28;20439;-76
2023/08/31 08:05:41;;;;;;;15.47;14.60;;;24.60;90.50;;;;;;5076488;28;20456;-76
2023/08/31 08:08:08;;;;;;;13.23;12.73;;;24.90;89.50;;;;;;5090101;28;20486;-77
2023/08/31 08:10:34;;;;;;;13.83;13.13;;;25.30;86.60;;;;;;5077405;28;20462;-76
2023/08/31 08:13:01;;;;;;;13.30;12.70;;;25.70;85.60;;;;;;5081177;28;20470;-77
2023/08/31 08:15:28;;;;;;;13.43;12.73;;;26.50;84.70;;;;;;5079398;28;20462;-77
2023/08/31 08:17:57;;;;;;;13.60;12.50;;;26.40;84.30;;;;;;5082985;28;20467;-78
2023/08/31 08:20:23;;;;;;;13.60;12.80;;;26.40;84.00;;;;;;5079216;28;21011;-78
2023/08/31 08:22:52;;;;;;;12.53;12.03;;;26.80;81.50;;;;;;5093927;28;20453;-77
2023/08/31 08:25:19;;;;;;;13.53;12.93;;;27.00;80.10;;;;;;5082433;28;20461;-76
2023/08/31 08:27:46;;;;;;;14.00;13.30;;;26.10;74.30;;;;;;5079091;28;20499;-76
2023/08/31 08:30:13;;;;;;;14.00;13.30;;;25.60;74.50;;;;;;5075814;28;20452;-77
2023/08/31 08:32:40;;;;;;;13.43;12.73;;;25.20;76.70;;;;;;5078705;28;20451;-75
2023/08/31 08:35:09;;;;;;;12.70;12.00;;;24.30;77.20;;;;;;5077780;28;20450;-76
2023/08/31 08:37:35;;;;;;;12.60;12.10;;;23.60;78.80;;;;;;5078541;28;20466;-76
2023/08/31 08:40:03;;;;;;;12.30;11.73;;;23.40;77.70;;;;;;5080063;28;20481;-76
2023/08/31 08:42:32;;;;;;;12.80;12.20;;;22.60;80.50;;;;;;5083627;28;20466;-76
2023/08/31 08:44:59;;;;;;;11.70;11.10;;;22.10;81.80;;;;;;5085671;28;20508;-75
2023/08/31 08:47:26;;;;;;;13.47;12.97;;;21.70;81.70;;;;;;5081374;28;20493;-75
2023/08/31 08:49:54;;;;;;;13.20;12.70;;;21.80;85.40;;;;;;5083636;28;20474;-75
2023/08/31 08:52:23;;;;;;;12.60;11.70;;;21.90;85.30;;;;;;5072718;28;20458;-76
2023/08/31 08:54:51;;;;;;;12.93;12.23;;;22.50;84.70;;;;;;5082704;28;20454;-75
2023/08/31 08:57:17;;;;;;;13.40;12.70;;;23.30;79.60;;;;;;5087690;28;20738;-75
2023/08/31 08:59:44;;;;;;;13.50;12.87;;;22.80;81.00;;;;;;5079751;28;20777;-76
2023/08/31 09:02:12;;;;;;;12.60;11.83;;;22.50;82.70;;;;;;5080948;28;20450;-76
2023/08/31 09:04:39;;;;;;;12.43;11.83;;;22.80;82.00;;;;;;5088784;28;20455;-75
2023/08/31 09:07:06;;;;;;;12.30;11.70;;;22.20;82.90;;;;;;5085279;28;20451;-76
2023/08/31 09:09:50;;;;;;;12.73;12.03;;;22.20;84.20;;;;;;5085677;28;20474;-76
2023/08/31 09:12:16;;;;;;;12.93;12.43;;;22.30;84.00;;;;;;5085021;28;20943;-76
2023/08/31 09:14:43;;;;;;;14.30;13.27;;;23.30;85.30;;;;;;5080145;28;20518;-76
2023/08/31 09:17:10;;;;;;;12.63;12.00;;;24.30;78.80;;;;;;5076445;28;20820;-76
2023/08/31 09:19:37;;;;;;;13.83;12.90;;;26.00;77.40;;;;;;5092437;28;20454;-76
2023/08/31 09:22:04;;;;;;;13.33;12.53;;;27.10;72.30;;;;;;5082323;28;20462;-77
2023/08/31 09:24:42;;;;;;;13.37;12.77;;;27.90;72.00;;;;;;5078053;28;20481;-75
2023/08/31 09:27:10;;;;;;;13.63;12.83;;;26.60;70.00;;;;;;5077289;28;20450;-76
2023/08/31 09:29:39;;;;;;;14.20;13.20;;;25.80;73.20;;;;;;5084008;28;20459;-76
2023/08/31 09:32:06;;;;;;;12.43;11.93;;;25.50;73.10;;;;;;5077009;28;20467;-75
2023/08/31 09:34:34;;;;;;;13.20;12.60;;;25.20;73.20;;;;;;5086655;28;20465;-76
2023/08/31 09:37:05;;;;;;;13.03;12.33;;;26.40;77.60;;;;;;5078662;28;20484;-76
2023/08/31 09:39:36;;;;;;;14.43;13.63;;;27.10;73.90;;;;;;5079240;28;20450;-76
2023/08/31 09:42:05;;;;;;;13.90;13.20;;;27.60;67.80;;;;;;5078745;28;20442;-75
2023/08/31 09:44:32;;;;;;;13.87;13.20;;;27.30;72.00;;;;;;5086811;28;20882;-76
2023/08/31 09:46:59;;;;;;;13.87;13.27;;;25.60;71.50;;;;;;5077751;28;20459;-76
2023/08/31 09:49:26;;;;;;;12.53;11.93;;;24.80;71.50;;;;;;5088003;28;20817;-75
2023/08/31 09:51:54;;;;;;;13.90;13.20;;;;;;;;;;5072091;28;20454;-76
2023/08/31 09:54:23;;;;;;;14.63;13.93;;;23.70;76.30;;;;;;5072806;28;20559;-75
2023/08/31 09:56:51;;;;;;;13.00;12.30;;;24.70;77.50;;;;;;5090451;28;20457;-76
2023/08/31 09:59:19;;;;;;;12.43;11.93;;;26.30;69.30;;;;;;5075417;28;20797;-75
2023/08/31 10:01:47;;;;;;;13.47;12.87;;;27.60;70.50;;;;;;5079602;28;20442;-75
2023/08/31 10:04:14;;;;;;;13.20;12.70;;;28.00;62.10;;;;;;5072304;28;20976;-76
2023/08/31 10:06:41;;;;;;;14.93;14.10;;;29.20;59.30;;;;;;5082168;28;20875;-75
2023/08/31 10:09:10;;;;;;;14.47;13.87;;;29.60;56.20;;;;;;5074482;28;20490;-75
2023/08/31 10:11:39;;;;;;;12.83;12.33;;;28.90;55.90;;;;;;5079466;28;20483;-75
2023/08/31 10:14:06;;;;;;;12.97;12.37;;;27.80;57.00;;;;;;5079597;28;20973;-74
2023/08/31 10:16:35;;;;;;;13.93;13.20;;;27.60;57.00;;;;;;5087490;28;20963;-74
2023/08/31 10:19:03;;;;;;;13.13;12.50;;;28.40;57.80;;;;;;5084369;28;20487;-76
2023/08/31 10:21:30;;;;;;;14.13;13.53;;;28.10;55.60;;;;;;5082525;28;20481;-74
2023/08/31 10:23:57;;;;;;;14.10;13.50;;;26.90;56.20;;;;;;5074253;28;20454;-74
2023/08/31 10:26:25;;;;;;;13.83;13.10;;;25.60;60.10;;;;;;5084165;28;20453;-77
2023/08/31 10:28:52;;;;;;;12.70;12.10;;;25.70;59.50;;;;;;5081212;28;20589;-74
2023/08/31 10:31:22;;;;;;;13.90;13.17;;;26.80;58.00;;;;;;5076210;28;20835;-74
2023/08/31 10:33:57;;;;;;;14.90;14.10;;;27.60;56.40;;;;;;5081385;28;20847;-76
2023/08/31 10:36:36;;;;;;;15.03;14.13;;;27.20;61.10;;;;;;5077394;28;20446;-75
2023/08/31 10:39:08;;;;;;;13.80;13.30;;;26.00;59.40;;;;;;5082254;28;20458;-74
2023/08/31 10:41:35;;;;;;;13.27;12.50;;;25.30;60.50;;;;;;5071005;28;20848;-75
2023/08/31 10:44:02;;;;;;;13.23;12.43;;;24.50;62.10;;;;;;5086557;28;20450;-74
2023/08/31 10:46:32;;;;;;;12.50;11.80;;;24.00;64.60;;;;;;5090142;28;20443;-75
2023/08/31 10:49:02;;;;;;;14.40;13.40;;;23.60;66.70;;;;;;5076410;28;20487;-74
2023/08/31 10:51:31;;;;;;;12.20;11.50;;;23.40;68.60;;;;;;5079114;28;20493;-74
2023/08/31 10:54:21;;;;;;;13.53;12.57;;;23.40;69.20;;;;;;5082821;28;20573;-75
2023/08/31 10:57:05;;;;;;;13.67;13.07;;;24.10;69.20;;;;;;5078071;28;20510;-74
2023/08/31 10:59:43;;;;;;;23.73;21.80;;;24.10;64.40;;;;;;5076766;28;20550;-75
2023/08/31 11:02:10;;;;;;;13.70;12.90;;;24.10;65.60;;;;;;5075655;28;20442;-75
2023/08/31 11:04:57;;;;;;;13.23;12.40;;;24.40;66.30;;;;;;5081397;28;20462;-75
2023/08/31 11:07:26;;;;;;;14.40;13.70;;;24.70;65.90;;;;;;5076996;28;20731;-75
2023/08/31 11:09:53;;;;;;;15.67;14.87;;;25.50;62.90;;;;;;5077649;28;20442;-74
2023/08/31 11:12:23;;;;;;;14.70;13.90;;;25.50;61.80;;;;;;5080594;28;20847;-74
2023/08/31 11:14:50;;;;;;;13.40;12.80;;;24.50;63.10;;;;;;5077564;28;20860;-74
2023/08/31 11:17:17;;;;;;;14.00;13.00;;;23.60;65.90;;;;;;5078701;28;20654;-75
2023/08/31 11:19:45;;;;;;;14.40;13.80;;;23.40;65.90;;;;;;5079121;28;20652;-74
2023/08/31 11:22:13;;;;;;;15.53;14.73;;;23.20;67.60;;;;;;5078564;28;20833;-74
2023/08/31 11:24:40;;;;;;;13.53;12.93;;;23.30;68.90;;;;;;5079570;28;20450;-73
2023/08/31 11:27:09;;;;;;;13.20;12.47;;;23.30;69.30;;;;;;5078751;28;20920;-73
2023/08/31 11:29:39;;;;;;;13.23;12.60;;;23.60;68.70;;;;;;5076253;28;20988;-74
2023/08/31 11:32:06;;;;;;;12.77;11.97;;;23.70;69.60;;;;;;5072270;28;20450;-74
2023/08/31 11:34:33;;;;;;;13.90;13.20;;;23.90;69.30;;;;;;5077995;28;20465;-74
2023/08/31 11:37:00;;;;;;;13.70;12.73;;;24.60;68.50;;;;;;5073749;28;20455;-74
2023/08/31 11:39:29;;;;;;;12.97;12.47;;;26.40;65.70;;;;;;5084163;28;20450;-74
2023/08/31 11:41:56;;;;;;;14.67;13.87;;;27.00;60.90;;;;;;5078707;28;20454;-74
2023/08/31 11:44:23;;;;;;;14.63;14.03;;;27.20;62.20;;;;;;5083349;28;20446;-74
2023/08/31 11:46:51;;;;;;;12.47;11.97;;;27.00;61.00;;;;;;5076284;28;21039;-74
2023/08/31 11:49:18;;;;;;;13.30;12.40;;;26.70;61.80;;;;;;5081653;28;20485;-73
2023/08/31 11:51:47;;;;;;;13.10;12.20;;;26.10;62.00;;;;;;5081265;28;20451;-74
2023/08/31 11:54:13;;;;;;;13.07;12.57;;;25.70;62.10;;;;;;5077275;28;20487;-73
2023/08/31 11:56:43;;;;;;;13.57;12.87;;;25.00;63.90;;;;;;5086503;28;20454;-73
2023/08/31 11:59:11;;;;;;;13.13;12.33;;;24.50;64.80;;;;;;5078823;28;20472;-73
2023/08/31 12:01:40;;;;;;;13.80;12.90;;;24.60;66.50;;;;;;5081312;28;20454;-74
2023/08/31 12:04:14;;;;;;;13.67;12.97;;;24.90;65.80;;;;;;5078916;28;20481;-73
2023/08/31 12:06:41;;;;;;;14.70;13.70;;;25.00;66.10;;;;;;5072576;28;20447;-74
2023/08/31 12:09:09;;;;;;;13.80;12.97;;;25.10;66.50;;;;;;5085323;28;20493;-74
2023/08/31 12:11:36;;;;;;;14.20;13.60;;;25.00;66.70;;;;;;5085515;28;20445;-74
2023/08/31 12:14:18;;;;;;;14.60;13.70;;;25.00;65.90;;;;;;5081479;28;20466;-74
2023/08/31 12:16:45;;;;;;;13.83;13.23;;;25.00;66.30;;;;;;5080290;28;20558;-74
2023/08/31 12:19:12;;;;;;;13.10;12.40;;;24.90;65.90;;;;;;5083495;28;20449;-74
2023/08/31 12:21:38;;;;;;;12.87;12.27;;;24.90;67.10;;;;;;5082451;28;20470;-74
2023/08/31 12:24:06;;;;;;;13.83;13.13;;;25.10;67.20;;;;;;5078205;28;20949;-74
2023/08/31 12:26:34;;;;;;;13.87;13.17;;;25.10;65.60;;;;;;5082206;28;20450;-74
2023/08/31 12:29:00;;;;;;;14.43;13.43;;;25.30;66.10;;;;;;5090068;28;20576;-74
2023/08/31 12:31:28;;;;;;;13.00;12.40;;;25.40;65.50;;;;;;5079457;28;20442;-73